Pagrindinis puslapis
METAR-TAF:

METAR-TAF

Oro uostai :

Dawson City, Jukonas, Kanada

platuma: 64-03N, ilguma: 139-08W, Aukštis: 370 m

Dabartinis oras

Ataskaita buvo paskelbta 1 valandą ir 19 minutes, ne 19:00 UTC
Vėjas 2 kt nuo kintamojo kryptimis
Temperatūra -9°C
Drėgmė 92%
Slėgis 1016 hPa
Matomumas: 24.1 km
Mažai debesys ne aukštis 4500 ft
Išsisklaidę debesys ne aukštis 5600 ft
Apsiniaukę ne aukštis 8000 ft
Apsiniaukę ne aukštis 11000 ft
sniegas

METAR: CYDA 281900Z VRB02KT 15SM -SN FEW045 SCT056 OVC080 OVC110 M09/M10 A2999 RMK SC2SC2AS4AC1 AC TR SLP189

Laikas: 13:19 (20:19 UTC)

Prognozė

Ataskaita buvo paskelbta 5 valandos ir 41 minutes, ne 14:38 UTC
Prognozė galioja nuo 28 metu 15 UTC su 28 metu 22 UTC
Vėjas 3 kt nuo kintamojo kryptimis
Matomumas: 10 km
Išsisklaidę debesys ne aukštis 2000 ft
Apsiniaukę ne aukštis 5000 ft
sniegas

TAF: CYDA 281438Z 2815/2822 VRB03KT P6SM -SN SCT020 OVC050 RMK NXT FCST WILL BE ISSUED AT 291445Z

Orai ataskaitas ir orų prognozės (METAR, TAF).

turimą stotys yra geltonos ir raudonos taškus žemėlapyje.

Perkelti pele per norėdami pamatyti stoties vardą.

Tada spustelėkite, norėdami matyti oro stebėjimo ir prognozės.

Norėdami pakeisti žemėlapį: spustelėkite ant žalios mygtukų su juodo kryžiaus žemyn,; žalią mygtuką su brūkšneliu, jei norite nutolinti; arba žalių rodyklių gretimoms žemėlapius.


METAR-TAF: